createdAt,value
2022-08-24T00:00:55.182Z,18.35
2022-08-24T00:03:22.460Z,18.28
2022-08-24T00:05:49.332Z,18.23
2022-08-24T00:08:17.815Z,18.23
2022-08-24T00:10:45.351Z,18.12
2022-08-24T00:13:12.727Z,18.10
2022-08-24T00:15:40.153Z,18.18
2022-08-24T00:18:06.954Z,18.15
2022-08-24T00:20:33.658Z,18.14
2022-08-24T00:23:00.549Z,18.09
2022-08-24T00:25:28.472Z,18.05
2022-08-24T00:27:55.425Z,17.99
2022-08-24T00:30:22.436Z,17.89
2022-08-24T00:32:49.717Z,17.95
2022-08-24T00:35:18.447Z,17.98
2022-08-24T00:37:46.503Z,17.96
2022-08-24T00:40:15.584Z,17.92
2022-08-24T00:42:43.636Z,17.91
2022-08-24T00:45:12.648Z,17.81
2022-08-24T00:47:42.138Z,17.74
2022-08-24T00:50:20.008Z,17.78
2022-08-24T00:52:50.798Z,17.72
2022-08-24T00:55:20.696Z,17.64
2022-08-24T00:57:51.684Z,17.66
2022-08-24T01:00:30.217Z,17.58
2022-08-24T01:02:59.751Z,17.58
2022-08-24T01:05:26.361Z,17.51
2022-08-24T01:07:53.402Z,17.40
2022-08-24T01:10:24.099Z,17.43
2022-08-24T01:13:00.602Z,17.40
2022-08-24T01:15:29.059Z,17.36
2022-08-24T01:17:56.391Z,17.39
2022-08-24T01:20:23.988Z,17.33
2022-08-24T01:23:01.448Z,17.39
2022-08-24T01:25:32.501Z,17.38
2022-08-24T01:28:04.453Z,17.37
2022-08-24T01:30:36.307Z,17.38
2022-08-24T01:33:06.139Z,17.38
2022-08-24T01:35:33.745Z,17.26
2022-08-24T01:38:05.199Z,17.33
2022-08-24T01:40:35.643Z,17.24
2022-08-24T01:43:04.726Z,17.30
2022-08-24T01:45:31.543Z,17.18
2022-08-24T01:47:59.211Z,17.22
2022-08-24T01:50:26.618Z,17.20
2022-08-24T01:53:08.573Z,17.15
2022-08-24T01:55:37.685Z,17.14
2022-08-24T01:58:05.142Z,17.06
2022-08-24T02:00:32.097Z,17.06
2022-08-24T02:02:58.995Z,17.05
2022-08-24T02:05:26.200Z,17.01
2022-08-24T02:07:52.966Z,16.87
2022-08-24T02:10:21.403Z,16.85
2022-08-24T02:12:52.464Z,16.88
2022-08-24T02:15:19.134Z,16.84
2022-08-24T02:17:47.396Z,16.73
2022-08-24T02:20:15.175Z,16.78
2022-08-24T02:22:41.799Z,16.75
2022-08-24T02:25:08.878Z,16.72
2022-08-24T02:27:41.355Z,16.72
2022-08-24T02:30:11.195Z,16.70
2022-08-24T02:32:39.113Z,16.67
2022-08-24T02:35:05.935Z,16.62
2022-08-24T02:37:32.669Z,16.46
2022-08-24T02:40:00.317Z,16.49
2022-08-24T02:42:27.566Z,16.45
2022-08-24T02:44:55.038Z,16.35
2022-08-24T02:47:23.211Z,16.39
2022-08-24T02:50:09.367Z,16.35
2022-08-24T02:52:36.442Z,16.30
2022-08-24T02:55:03.434Z,16.31
2022-08-24T02:57:30.225Z,16.30
2022-08-24T02:59:56.807Z,16.28
2022-08-24T03:02:25.206Z,16.26
2022-08-24T03:04:52.408Z,16.24
2022-08-24T03:07:19.821Z,16.19
2022-08-24T03:09:49.893Z,16.14
2022-08-24T03:12:16.576Z,16.12
2022-08-24T03:14:43.189Z,16.05
2022-08-24T03:17:10.156Z,16.03
2022-08-24T03:19:38.436Z,16.01
2022-08-24T03:22:06.397Z,15.92
2022-08-24T03:24:33.124Z,15.91
2022-08-24T03:26:59.903Z,15.88
2022-08-24T03:29:27.153Z,15.83
2022-08-24T03:31:54.264Z,15.74
2022-08-24T03:34:21.055Z,15.76
2022-08-24T03:36:49.676Z,15.71
2022-08-24T03:39:16.851Z,15.67
2022-08-24T03:41:44.205Z,15.55
2022-08-24T03:44:10.974Z,15.59
2022-08-24T03:46:39.505Z,15.59
2022-08-24T03:49:08.828Z,15.57
2022-08-24T03:51:37.263Z,15.55
2022-08-24T03:54:08.871Z,15.54
2022-08-24T03:56:35.629Z,15.49
2022-08-24T03:59:02.859Z,15.47
2022-08-24T04:01:34.553Z,15.43
2022-08-24T04:04:01.367Z,15.42
2022-08-24T04:06:31.392Z,15.39
2022-08-24T04:08:58.497Z,15.33
2022-08-24T04:11:28.261Z,15.33
2022-08-24T04:13:57.585Z,15.31
2022-08-24T04:16:26.334Z,15.30
2022-08-24T04:19:02.729Z,15.27
2022-08-24T04:21:31.486Z,15.19
2022-08-24T04:24:03.110Z,15.19
2022-08-24T04:26:44.594Z,15.22
2022-08-24T04:29:14.962Z,15.20
2022-08-24T04:31:46.632Z,15.16
2022-08-24T04:34:15.500Z,15.18
2022-08-24T04:36:42.609Z,15.16
2022-08-24T04:39:09.476Z,15.13
2022-08-24T04:42:03.014Z,15.01
2022-08-24T04:44:32.658Z,15.11
2022-08-24T04:47:00.479Z,15.08
2022-08-24T04:49:27.301Z,14.94
2022-08-24T04:51:53.974Z,14.97
2022-08-24T04:54:22.040Z,15.05
2022-08-24T04:57:02.197Z,15.04
2022-08-24T04:59:29.012Z,14.98
2022-08-24T05:01:55.704Z,15.03
2022-08-24T05:04:22.508Z,15.05
2022-08-24T05:06:53.050Z,14.93
2022-08-24T05:09:21.445Z,15.03
2022-08-24T05:11:49.804Z,15.07
2022-08-24T05:14:28.022Z,15.08
2022-08-24T05:16:55.712Z,15.08
2022-08-24T05:19:22.771Z,15.14
2022-08-24T05:21:49.492Z,15.17
2022-08-24T05:24:16.350Z,15.21
2022-08-24T05:26:43.029Z,15.26
2022-08-24T05:29:10.603Z,15.20
2022-08-24T05:31:45.725Z,15.32
2022-08-24T05:34:13.307Z,15.37
2022-08-24T05:36:41.279Z,15.43
2022-08-24T05:39:14.063Z,15.41
2022-08-24T05:41:47.194Z,15.55
2022-08-24T05:44:21.638Z,15.51
2022-08-24T05:46:49.749Z,15.70
2022-08-24T05:49:16.399Z,15.68
2022-08-24T05:51:43.126Z,15.73
2022-08-24T05:54:12.365Z,15.91
2022-08-24T05:56:59.337Z,15.98
2022-08-24T05:59:26.183Z,16.06
2022-08-24T06:01:54.544Z,16.06
2022-08-24T06:04:21.402Z,16.25
2022-08-24T06:06:48.920Z,16.32
2022-08-24T06:09:16.730Z,16.43
2022-08-24T06:11:45.219Z,16.55
2022-08-24T06:14:14.418Z,16.66
2022-08-24T06:16:51.800Z,16.76
2022-08-24T06:19:22.310Z,16.74
2022-08-24T06:21:51.745Z,17.02
2022-08-24T06:24:19.419Z,17.08
2022-08-24T06:26:49.910Z,17.25
2022-08-24T06:29:17.749Z,17.38
2022-08-24T06:31:47.903Z,17.50
2022-08-24T06:34:24.593Z,17.61
2022-08-24T06:36:53.007Z,17.76
2022-08-24T06:39:22.381Z,17.88
2022-08-24T06:41:51.532Z,18.01
2022-08-24T06:44:29.820Z,18.13
2022-08-24T06:47:04.891Z,18.31
2022-08-24T06:49:33.081Z,18.41
2022-08-24T06:52:04.236Z,18.53
2022-08-24T06:54:31.099Z,18.63
2022-08-24T06:56:57.814Z,18.70
2022-08-24T06:59:25.070Z,18.92
2022-08-24T07:01:51.741Z,19.07
2022-08-24T07:04:18.439Z,19.28
2022-08-24T07:07:09.532Z,19.42
2022-08-24T07:09:37.440Z,19.59
2022-08-24T07:12:05.284Z,19.77
2022-08-24T07:14:35.374Z,19.92
2022-08-24T07:17:02.628Z,20.07
2022-08-24T07:19:31.225Z,20.21
2022-08-24T07:21:58.500Z,20.36
2022-08-24T07:24:27.570Z,20.51
2022-08-24T07:26:54.742Z,20.69
2022-08-24T07:32:08.637Z,20.97
2022-08-24T07:34:37.988Z,21.13
2022-08-24T07:37:06.385Z,21.23
2022-08-24T07:39:36.273Z,21.43
2022-08-24T07:42:26.898Z,21.64
2022-08-24T07:44:50.225Z,21.92
2022-08-24T07:50:09.723Z,22.20
2022-08-24T07:52:37.444Z,22.45
2022-08-24T07:55:06.522Z,22.52
2022-08-24T07:57:34.206Z,22.58
2022-08-24T08:00:01.997Z,22.84
2022-08-24T08:02:42.098Z,23.01
2022-08-24T08:05:10.450Z,23.21
2022-08-24T08:07:45.803Z,23.35
2022-08-24T08:10:16.083Z,23.57
2022-08-24T08:12:42.999Z,23.76
2022-08-24T08:15:11.277Z,23.90
2022-08-24T08:17:45.506Z,24.06
2022-08-24T08:20:13.330Z,24.18
2022-08-24T08:22:44.284Z,24.34
2022-08-24T08:25:32.242Z,24.49
2022-08-24T08:28:08.125Z,24.61
2022-08-24T08:30:49.667Z,24.73
2022-08-24T08:33:16.491Z,24.93
2022-08-24T08:35:43.470Z,25.10
2022-08-24T08:38:11.410Z,25.26
2022-08-24T08:40:50.298Z,25.38
2022-08-24T08:43:34.108Z,25.48
2022-08-24T08:46:18.894Z,25.48
2022-08-24T08:49:23.791Z,25.78
2022-08-24T08:52:25.410Z,25.96
2022-08-24T08:55:05.378Z,26.10
2022-08-24T08:58:10.220Z,26.18
2022-08-24T09:00:52.491Z,26.29
2022-08-24T09:03:43.827Z,26.44
2022-08-24T09:06:53.296Z,26.59
2022-08-24T09:09:42.407Z,26.69
2022-08-24T09:12:18.674Z,26.86
2022-08-24T09:15:14.379Z,26.86
2022-08-24T09:17:57.114Z,27.14
2022-08-24T09:20:52.510Z,27.20
2022-08-24T09:23:29.531Z,27.38
2022-08-24T09:26:02.960Z,27.49
2022-08-24T09:28:41.287Z,27.73
2022-08-24T09:34:17.389Z,28.06
2022-08-24T09:36:54.390Z,28.08
2022-08-24T09:39:37.063Z,28.22
2022-08-24T09:42:37.141Z,28.38
2022-08-24T09:45:22.261Z,28.39
2022-08-24T09:48:21.034Z,28.56
2022-08-24T09:51:23.576Z,28.80
2022-08-24T09:54:29.085Z,28.90
2022-08-24T09:57:19.900Z,29.10
2022-08-24T09:59:54.241Z,29.22
2022-08-24T10:02:39.992Z,29.25
2022-08-24T10:05:18.466Z,29.28
2022-08-24T10:07:55.839Z,29.44
2022-08-24T10:10:32.113Z,29.50
2022-08-24T10:13:14.979Z,29.64
2022-08-24T10:15:51.792Z,29.70
2022-08-24T10:18:37.177Z,29.75
2022-08-24T10:21:17.109Z,29.84
2022-08-24T10:24:14.470Z,29.99
2022-08-24T10:27:06.316Z,30.03
2022-08-24T10:29:47.554Z,30.12
2022-08-24T10:32:28.885Z,30.27
2022-08-24T10:35:03.374Z,30.39
2022-08-24T10:37:52.956Z,30.57
2022-08-24T10:40:34.542Z,30.72
2022-08-24T10:43:34.455Z,30.77
2022-08-24T10:46:29.712Z,30.97
2022-08-24T10:49:35.202Z,31.08
2022-08-24T10:52:24.653Z,31.18
2022-08-24T10:54:53.352Z,31.24
2022-08-24T10:57:31.168Z,31.42
2022-08-24T11:00:05.317Z,31.65
2022-08-24T11:02:36.023Z,31.87
2022-08-24T11:05:05.010Z,31.86
2022-08-24T11:07:32.252Z,31.95
2022-08-24T11:10:02.436Z,32.24
2022-08-24T11:12:31.989Z,32.27
2022-08-24T11:15:00.839Z,32.45
2022-08-24T11:17:31.491Z,32.42
2022-08-24T11:19:58.741Z,32.48
2022-08-24T11:22:30.069Z,32.70
2022-08-24T11:25:02.086Z,32.62
2022-08-24T11:27:34.520Z,32.81
2022-08-24T11:30:09.799Z,32.91
2022-08-24T11:32:43.442Z,33.08
2022-08-24T11:35:19.806Z,33.09
2022-08-24T11:37:47.777Z,33.18
2022-08-24T11:40:17.747Z,33.17
2022-08-24T11:43:05.160Z,33.31
2022-08-24T11:45:40.811Z,33.54
2022-08-24T11:48:19.005Z,33.49
2022-08-24T11:50:52.597Z,33.59
2022-08-24T11:53:28.834Z,33.91
2022-08-24T11:56:07.896Z,34.16
2022-08-24T11:58:43.432Z,34.28
2022-08-24T12:01:17.461Z,34.31
2022-08-24T12:03:56.981Z,34.36
2022-08-24T12:06:34.896Z,34.33
2022-08-24T12:09:09.075Z,34.54
2022-08-24T12:11:45.486Z,34.56
2022-08-24T12:14:19.418Z,34.66
2022-08-24T12:16:52.421Z,34.93
2022-08-24T12:19:23.836Z,35.06
2022-08-24T12:21:54.553Z,35.29
2022-08-24T12:24:30.861Z,35.42
2022-08-24T12:27:04.812Z,35.53
2022-08-24T12:29:36.797Z,35.50
2022-08-24T12:32:08.288Z,35.67
2022-08-24T12:34:45.805Z,35.85
2022-08-24T12:37:22.328Z,35.88
2022-08-24T12:39:57.330Z,35.69
2022-08-24T12:42:33.209Z,35.88
2022-08-24T12:45:05.201Z,36.06
2022-08-24T12:47:35.284Z,36.24
2022-08-24T12:50:05.854Z,36.35
2022-08-24T12:53:12.285Z,36.32
2022-08-24T12:55:57.606Z,36.30
2022-08-24T12:58:55.217Z,36.16
2022-08-24T13:01:27.823Z,36.38
2022-08-24T13:04:13.410Z,36.55
2022-08-24T13:06:45.780Z,36.54
2022-08-24T13:09:26.770Z,36.60
2022-08-24T13:11:54.388Z,36.53
2022-08-24T13:14:24.720Z,36.57
2022-08-24T13:17:06.910Z,36.61
2022-08-24T13:19:36.801Z,36.73
2022-08-24T13:22:38.509Z,36.76
2022-08-24T13:25:43.347Z,36.87
2022-08-24T13:28:32.313Z,36.81
2022-08-24T13:31:10.047Z,36.79
2022-08-24T13:33:41.928Z,37.21
2022-08-24T13:36:48.114Z,37.40
2022-08-24T13:39:53.581Z,37.46
2022-08-24T13:42:44.713Z,37.63
2022-08-24T13:45:31.638Z,37.71
2022-08-24T13:48:13.242Z,37.73
2022-08-24T13:50:58.452Z,37.42
2022-08-24T13:53:47.682Z,37.38
2022-08-24T13:56:38.018Z,37.14
2022-08-24T13:59:15.468Z,36.79
2022-08-24T14:02:02.641Z,36.83
2022-08-24T14:04:39.823Z,37.02
2022-08-24T14:07:12.417Z,37.23
2022-08-24T14:09:58.903Z,37.42
2022-08-24T14:12:53.574Z,37.60
2022-08-24T14:15:31.857Z,37.63
2022-08-24T14:18:10.721Z,37.75
2022-08-24T14:21:00.979Z,38.03
2022-08-24T14:23:35.117Z,37.94
2022-08-24T14:26:38.687Z,38.15
2022-08-24T14:29:29.771Z,38.31
2022-08-24T14:32:29.515Z,38.44
2022-08-24T14:35:05.643Z,38.66
2022-08-24T14:37:46.296Z,38.68
2022-08-24T14:40:27.198Z,38.73
2022-08-24T14:42:56.705Z,38.62
2022-08-24T14:45:34.430Z,38.63
2022-08-24T14:48:11.965Z,38.84
2022-08-24T14:50:48.590Z,39.08
2022-08-24T14:53:47.646Z,39.38
2022-08-24T14:56:25.011Z,39.46
2022-08-24T14:59:03.387Z,39.35
2022-08-24T15:01:42.288Z,39.23
2022-08-24T15:04:36.150Z,39.19
2022-08-24T15:07:22.794Z,39.43
2022-08-24T15:09:53.301Z,39.61
2022-08-24T15:12:30.262Z,39.62
2022-08-24T15:15:07.264Z,39.72
2022-08-24T15:17:48.055Z,39.58
2022-08-24T15:20:19.308Z,39.42
2022-08-24T15:22:51.942Z,39.25
2022-08-24T15:25:33.694Z,39.19
2022-08-24T15:28:09.704Z,39.07
2022-08-24T15:30:38.611Z,39.13
2022-08-24T15:33:09.006Z,39.31
2022-08-24T15:35:37.909Z,39.35
2022-08-24T15:38:23.012Z,39.38
2022-08-24T15:40:54.094Z,39.30
2022-08-24T15:43:21.252Z,39.09
2022-08-24T15:45:51.718Z,38.85
2022-08-24T15:48:21.751Z,38.28
2022-08-24T15:50:48.854Z,37.91
2022-08-24T15:53:38.009Z,37.56
2022-08-24T15:56:29.324Z,37.33
2022-08-24T15:59:07.333Z,37.08
2022-08-24T16:01:34.184Z,36.89
2022-08-24T16:04:02.550Z,36.73
2022-08-24T16:06:37.069Z,36.61
2022-08-24T16:09:07.961Z,36.45
2022-08-24T16:11:38.078Z,36.20
2022-08-24T16:14:06.319Z,35.97
2022-08-24T16:16:39.646Z,35.65
2022-08-24T16:19:16.980Z,35.36
2022-08-24T16:21:51.395Z,35.48
2022-08-24T16:24:29.952Z,35.37
2022-08-24T16:27:02.537Z,35.23
2022-08-24T16:29:53.452Z,35.09
2022-08-24T16:32:32.527Z,34.99
2022-08-24T16:35:19.268Z,34.90
2022-08-24T16:37:46.222Z,34.78
2022-08-24T16:40:12.848Z,34.67
2022-08-24T16:42:41.375Z,34.39
2022-08-24T16:45:10.890Z,34.46
2022-08-24T16:47:37.840Z,34.35
2022-08-24T16:50:06.502Z,34.26
2022-08-24T16:52:33.416Z,34.35
2022-08-24T16:55:00.006Z,34.63
2022-08-24T16:57:29.078Z,34.81
2022-08-24T16:59:57.058Z,35.24
2022-08-24T17:02:24.354Z,35.49
2022-08-24T17:04:51.700Z,35.73
2022-08-24T17:07:22.820Z,35.99
2022-08-24T17:09:50.157Z,36.16
2022-08-24T17:12:16.972Z,36.33
2022-08-24T17:14:43.653Z,36.40
2022-08-24T17:17:14.573Z,36.43
2022-08-24T17:19:43.421Z,36.33
2022-08-24T17:22:15.593Z,36.01
2022-08-24T17:24:43.380Z,35.71
2022-08-24T17:27:10.469Z,35.45
2022-08-24T17:29:37.332Z,35.14
2022-08-24T17:32:04.432Z,35.07
2022-08-24T17:34:32.565Z,34.83
2022-08-24T17:37:00.082Z,34.63
2022-08-24T17:39:27.645Z,34.30
2022-08-24T17:41:56.197Z,34.11
2022-08-24T17:44:25.337Z,33.83
2022-08-24T17:46:54.022Z,33.58
2022-08-24T17:49:21.762Z,33.33
2022-08-24T17:51:50.198Z,33.07
2022-08-24T17:54:18.202Z,32.81
2022-08-24T17:56:45.622Z,32.64
2022-08-24T17:59:13.764Z,32.45
2022-08-24T18:01:40.354Z,32.27
2022-08-24T18:04:06.920Z,32.07
2022-08-24T18:06:33.510Z,31.85
2022-08-24T18:09:05.399Z,31.67
2022-08-24T18:11:32.057Z,31.44
2022-08-24T18:13:58.726Z,31.19
2022-08-24T18:16:25.514Z,30.90
2022-08-24T18:18:52.835Z,30.75
2022-08-24T18:21:20.053Z,30.50
2022-08-24T18:23:46.806Z,30.25
2022-08-24T18:26:17.773Z,30.06
2022-08-24T18:28:44.554Z,29.83
2022-08-24T18:31:13.593Z,29.26
2022-08-24T18:33:42.246Z,29.35
2022-08-24T18:36:08.847Z,29.15
2022-08-24T18:38:35.545Z,28.98
2022-08-24T18:41:02.355Z,28.80
2022-08-24T18:43:30.375Z,28.58
2022-08-24T18:45:57.273Z,28.35
2022-08-24T18:48:24.076Z,28.16
2022-08-24T18:50:51.434Z,27.71
2022-08-24T18:53:18.560Z,27.77
2022-08-24T18:55:45.214Z,27.57
2022-08-24T18:58:11.909Z,27.39
2022-08-24T19:00:41.600Z,27.21
2022-08-24T19:03:11.180Z,27.03
2022-08-24T19:05:39.288Z,26.85
2022-08-24T19:08:06.464Z,26.67
2022-08-24T19:10:35.643Z,26.46
2022-08-24T19:13:06.091Z,26.38
2022-08-24T19:15:39.682Z,26.22
2022-08-24T19:18:09.063Z,26.00
2022-08-24T19:20:35.655Z,25.87
2022-08-24T19:23:07.004Z,25.73
2022-08-24T19:25:33.818Z,25.59
2022-08-24T19:28:00.364Z,25.47
2022-08-24T19:30:27.038Z,25.28
2022-08-24T19:32:54.970Z,25.23
2022-08-24T19:35:23.176Z,25.02
2022-08-24T19:37:49.780Z,24.99
2022-08-24T19:40:16.709Z,24.80
2022-08-24T19:42:43.531Z,24.76
2022-08-24T19:45:12.618Z,24.61
2022-08-24T19:47:39.221Z,24.48
2022-08-24T19:50:07.345Z,24.41
2022-08-24T19:52:36.032Z,24.34
2022-08-24T19:55:03.480Z,24.26
2022-08-24T19:57:48.289Z,24.14
2022-08-24T20:00:28.706Z,24.02
2022-08-24T20:02:56.852Z,23.94
2022-08-24T20:05:26.208Z,23.87
2022-08-24T20:07:55.305Z,23.73
2022-08-24T20:10:23.938Z,23.76
2022-08-24T20:12:51.906Z,23.62
2022-08-24T20:15:18.936Z,23.59
2022-08-24T20:17:45.893Z,23.52
2022-08-24T20:20:15.950Z,23.42
2022-08-24T20:22:42.869Z,23.35
2022-08-24T20:25:11.291Z,23.20
2022-08-24T20:27:38.086Z,23.25
2022-08-24T20:30:05.498Z,23.19
2022-08-24T20:32:32.221Z,23.13
2022-08-24T20:34:58.799Z,23.07
2022-08-24T20:37:27.654Z,23.02
2022-08-24T20:39:56.664Z,22.85
2022-08-24T20:42:25.426Z,22.80
2022-08-24T20:44:52.171Z,22.79
2022-08-24T20:47:18.797Z,22.73
2022-08-24T20:49:45.811Z,22.64
2022-08-24T20:52:12.506Z,22.53
2022-08-24T20:54:39.963Z,22.46
2022-08-24T20:57:08.874Z,22.46
2022-08-24T20:59:36.898Z,22.35
2022-08-24T21:02:04.068Z,22.27
2022-08-24T21:04:30.709Z,22.30
2022-08-24T21:06:57.727Z,22.26
2022-08-24T21:09:24.408Z,22.19
2022-08-24T21:11:51.505Z,22.04
2022-08-24T21:14:18.787Z,22.08
2022-08-24T21:16:47.114Z,21.97
2022-08-24T21:19:15.827Z,21.96
2022-08-24T21:21:42.718Z,21.85
2022-08-24T21:24:09.898Z,21.86
2022-08-24T21:26:36.843Z,21.79
2022-08-24T21:29:05.411Z,21.74
2022-08-24T21:31:32.017Z,21.65
2022-08-24T21:34:00.138Z,21.60
2022-08-24T21:36:28.288Z,21.49
2022-08-24T21:38:55.117Z,21.51
2022-08-24T21:41:21.753Z,21.45
2022-08-24T21:43:48.630Z,21.28
2022-08-24T21:46:15.456Z,21.29
2022-08-24T21:48:42.199Z,21.25
2022-08-24T21:51:10.222Z,21.24
2022-08-24T21:53:36.815Z,21.19
2022-08-24T21:56:04.134Z,21.10
2022-08-24T21:58:31.150Z,21.01
2022-08-24T22:00:59.532Z,21.10
2022-08-24T22:03:26.838Z,21.02
2022-08-24T22:05:58.429Z,20.93
2022-08-24T22:08:27.941Z,20.83
2022-08-24T22:10:54.731Z,20.74
2022-08-24T22:13:21.478Z,20.56
2022-08-24T22:15:48.156Z,20.58
2022-08-24T22:18:14.740Z,20.51
2022-08-24T22:20:41.488Z,20.36
2022-08-24T22:23:08.046Z,20.28
2022-08-24T22:25:36.073Z,20.32
2022-08-24T22:28:03.196Z,20.06
2022-08-24T22:30:33.269Z,20.11
2022-08-24T22:33:00.129Z,19.98
2022-08-24T22:35:27.346Z,19.76
2022-08-24T22:37:53.906Z,19.79
2022-08-24T22:40:20.796Z,19.74
2022-08-24T22:42:48.782Z,19.66
2022-08-24T22:45:15.342Z,19.58
2022-08-24T22:47:41.916Z,19.51
2022-08-24T22:50:08.909Z,19.45
2022-08-24T22:52:35.518Z,19.40
2022-08-24T22:55:02.169Z,19.36
2022-08-24T22:57:29.186Z,19.30
2022-08-24T22:59:58.793Z,19.27
2022-08-24T23:02:25.516Z,19.20
2022-08-24T23:04:52.788Z,19.07
2022-08-24T23:07:20.041Z,19.09
2022-08-24T23:09:47.101Z,19.05
2022-08-24T23:12:17.096Z,19.01
2022-08-24T23:14:43.717Z,18.98
2022-08-24T23:17:12.359Z,18.90
2022-08-24T23:19:39.006Z,18.75
2022-08-24T23:22:07.568Z,18.78
2022-08-24T23:24:34.794Z,18.55
2022-08-24T23:27:01.566Z,18.58
2022-08-24T23:29:28.662Z,18.59
2022-08-24T23:31:55.231Z,18.55
2022-08-24T23:34:23.480Z,18.53
2022-08-24T23:36:50.877Z,18.37
2022-08-24T23:39:18.640Z,18.46
2022-08-24T23:41:46.357Z,18.39
2022-08-24T23:44:15.714Z,18.35
2022-08-24T23:46:43.432Z,18.30
2022-08-24T23:49:10.895Z,18.24
2022-08-24T23:51:39.147Z,18.11
2022-08-24T23:54:07.798Z,18.17
2022-08-24T23:56:36.858Z,18.10
2022-08-24T23:59:06.157Z,18.02
